Overview Statistics Trail Chart Weather Telemetry Raw packets
 

This is the latest recevied weather packets stored in our database for station/object OE6JUE. If no packets are shown the sender has not sent any weather packets the latest 10 day(s).

<< 23 24 25 26 27 28 29 >>
Time Temp. Humidity Pressure Rain* Wind** Luminosity Snow
1788529736 32.78° C 26% 1018.5 hPa 0 mm - - -
1788529435 32.78° C 26% 1018.5 hPa 0 mm - - -
1788529164 33.33° C 26% 1018.4 hPa 0 mm - - -
1788528836 32.78° C 26% 1018.5 hPa 0 mm - - -
1788528536 32.78° C 27% 1018.5 hPa 0 mm - - -
1788528235 32.78° C 27% 1018.7 hPa 0 mm - - -
1788527936 32.78° C 26% 1018.8 hPa 0 mm - - -
1788527635 32.78° C 28% 1018.9 hPa 0 mm - - -
1788527335 32.22° C 31% 1018.8 hPa 0 mm - - -
1788527036 32.78° C 27% 1018.9 hPa 0 mm - - -
1788526736 32.78° C 27% 1019 hPa 0 mm - - -
1788526436 32.22° C 31% 1019.2 hPa 0 mm - - -
1788526135 32.22° C 30% 1019.2 hPa 0 mm - - -
1788525835 32.78° C 26% 1019.2 hPa 0 mm - - -
1788525535 32.78° C 27% 1019.4 hPa 0 mm - - -
1788525235 32.22° C 30% 1019.5 hPa 0 mm - - -
1788524935 32.22° C 31% 1019.4 hPa 0 mm - - -
1788524636 32.22° C 31% 1019.6 hPa 0 mm - - -
1788524335 31.67° C 32% 1019.7 hPa 0 mm - - -
1788524035 31.11° C 32% 1019.7 hPa 0 mm - - -
1788523735 31.11° C 32% 1019.7 hPa 0 mm - - -
1788523436 31.11° C 35% 1019.8 hPa 0 mm - - -
1788523136 31.11° C 35% 1020.1 hPa 0 mm - - -
1788522836 31.11° C 36% 1020.1 hPa 0 mm - - -
1788522535 30.56° C 36% 1020.3 hPa 0 mm - - -

* Rain latest hour (hover to see other rain measurements)
** Current wind speed in m/s (hover to see current wind gust speed)